sensor_id;sensor_type;location;lat;lon;timestamp;temperature;humidity
64987;DHT22;67903;52.108;9.358;2023-10-08T00:02:42;17.70;81.80
64987;DHT22;67903;52.108;9.358;2023-10-08T00:05:27;17.50;83.00
64987;DHT22;67903;52.108;9.358;2023-10-08T00:08:13;17.50;84.00
64987;DHT22;67903;52.108;9.358;2023-10-08T00:11:02;17.30;87.20
64987;DHT22;67903;52.108;9.358;2023-10-08T00:13:55;17.20;87.00
64987;DHT22;67903;52.108;9.358;2023-10-08T00:16:42;17.00;88.60
64987;DHT22;67903;52.108;9.358;2023-10-08T00:19:27;17.00;89.20
64987;DHT22;67903;52.108;9.358;2023-10-08T00:22:20;16.90;89.80
64987;DHT22;67903;52.108;9.358;2023-10-08T00:25:05;16.80;90.60
64987;DHT22;67903;52.108;9.358;2023-10-08T00:27:56;16.00;90.40
64987;DHT22;67903;52.108;9.358;2023-10-08T00:30:42;15.30;89.20
64987;DHT22;67903;52.108;9.358;2023-10-08T00:33:29;14.80;89.40
64987;DHT22;67903;52.108;9.358;2023-10-08T00:36:15;14.50;90.10
64987;DHT22;67903;52.108;9.358;2023-10-08T00:39:05;14.40;90.80
64987;DHT22;67903;52.108;9.358;2023-10-08T00:41:56;14.40;91.80
64987;DHT22;67903;52.108;9.358;2023-10-08T00:44:45;14.30;90.30
64987;DHT22;67903;52.108;9.358;2023-10-08T00:47:36;14.10;90.80
64987;DHT22;67903;52.108;9.358;2023-10-08T00:50:28;14.00;91.20
64987;DHT22;67903;52.108;9.358;2023-10-08T00:53:28;13.90;91.50
64987;DHT22;67903;52.108;9.358;2023-10-08T00:56:15;13.60;91.50
64987;DHT22;67903;52.108;9.358;2023-10-08T00:59:04;13.50;91.20
64987;DHT22;67903;52.108;9.358;2023-10-08T01:01:52;13.30;92.90
64987;DHT22;67903;52.108;9.358;2023-10-08T01:04:44;13.30;92.00
64987;DHT22;67903;52.108;9.358;2023-10-08T01:07:29;13.20;91.90
64987;DHT22;67903;52.108;9.358;2023-10-08T01:10:16;13.10;91.80
64987;DHT22;67903;52.108;9.358;2023-10-08T01:13:05;13.10;92.00
64987;DHT22;67903;52.108;9.358;2023-10-08T01:15:55;13.10;91.70
64987;DHT22;67903;52.108;9.358;2023-10-08T01:18:43;13.10;90.60
64987;DHT22;67903;52.108;9.358;2023-10-08T01:21:36;12.90;90.60
64987;DHT22;67903;52.108;9.358;2023-10-08T01:24:25;12.80;90.40
64987;DHT22;67903;52.108;9.358;2023-10-08T01:27:12;12.80;91.40
64987;DHT22;67903;52.108;9.358;2023-10-08T01:29:58;12.80;91.00
64987;DHT22;67903;52.108;9.358;2023-10-08T01:32:54;12.70;91.30
64987;DHT22;67903;52.108;9.358;2023-10-08T01:35:41;12.70;91.20
64987;DHT22;67903;52.108;9.358;2023-10-08T01:38:28;12.60;91.50
64987;DHT22;67903;52.108;9.358;2023-10-08T01:41:14;12.50;90.40
64987;DHT22;67903;52.108;9.358;2023-10-08T01:44:07;12.50;92.10
64987;DHT22;67903;52.108;9.358;2023-10-08T01:46:54;12.50;91.90
64987;DHT22;67903;52.108;9.358;2023-10-08T01:49:43;12.50;91.10
64987;DHT22;67903;52.108;9.358;2023-10-08T01:52:32;12.40;91.60
64987;DHT22;67903;52.108;9.358;2023-10-08T01:55:20;12.30;90.90
64987;DHT22;67903;52.108;9.358;2023-10-08T01:58:07;12.30;91.10
64987;DHT22;67903;52.108;9.358;2023-10-08T02:00:54;12.40;91.70
64987;DHT22;67903;52.108;9.358;2023-10-08T02:03:44;12.40;90.10
64987;DHT22;67903;52.108;9.358;2023-10-08T02:06:31;12.30;88.50
64987;DHT22;67903;52.108;9.358;2023-10-08T02:09:16;12.20;89.00
64987;DHT22;67903;52.108;9.358;2023-10-08T02:12:02;12.10;88.90
64987;DHT22;67903;52.108;9.358;2023-10-08T02:14:48;12.10;90.30
64987;DHT22;67903;52.108;9.358;2023-10-08T02:17:34;11.90;90.10
64987;DHT22;67903;52.108;9.358;2023-10-08T02:20:20;11.70;91.90
64987;DHT22;67903;52.108;9.358;2023-10-08T02:23:06;11.70;92.30
64987;DHT22;67903;52.108;9.358;2023-10-08T02:25:52;11.60;92.30
64987;DHT22;67903;52.108;9.358;2023-10-08T02:28:40;11.70;92.50
64987;DHT22;67903;52.108;9.358;2023-10-08T02:31:26;11.60;90.80
64987;DHT22;67903;52.108;9.358;2023-10-08T02:34:11;11.50;91.80
64987;DHT22;67903;52.108;9.358;2023-10-08T02:36:57;11.60;92.50
64987;DHT22;67903;52.108;9.358;2023-10-08T02:39:43;11.50;89.40
64987;DHT22;67903;52.108;9.358;2023-10-08T02:42:28;11.40;88.00
64987;DHT22;67903;52.108;9.358;2023-10-08T02:45:14;11.40;86.60
64987;DHT22;67903;52.108;9.358;2023-10-08T02:48:02;11.30;85.90
64987;DHT22;67903;52.108;9.358;2023-10-08T02:50:57;11.20;86.70
64987;DHT22;67903;52.108;9.358;2023-10-08T02:53:52;11.50;86.10
64987;DHT22;67903;52.108;9.358;2023-10-08T02:56:38;11.40;83.40
64987;DHT22;67903;52.108;9.358;2023-10-08T02:59:31;11.30;84.00
64987;DHT22;67903;52.108;9.358;2023-10-08T03:02:29;11.30;83.70
64987;DHT22;67903;52.108;9.358;2023-10-08T03:05:14;11.40;86.50
64987;DHT22;67903;52.108;9.358;2023-10-08T03:08:03;11.30;86.40
64987;DHT22;67903;52.108;9.358;2023-10-08T03:10:56;11.30;85.00
64987;DHT22;67903;52.108;9.358;2023-10-08T03:13:44;11.30;84.40
64987;DHT22;67903;52.108;9.358;2023-10-08T03:16:32;11.30;84.60
64987;DHT22;67903;52.108;9.358;2023-10-08T03:19:22;11.30;81.90
64987;DHT22;67903;52.108;9.358;2023-10-08T03:22:07;11.30;83.50
64987;DHT22;67903;52.108;9.358;2023-10-08T03:24:55;11.30;82.60
64987;DHT22;67903;52.108;9.358;2023-10-08T03:27:44;11.20;83.90
64987;DHT22;67903;52.108;9.358;2023-10-08T03:30:29;11.10;84.40
64987;DHT22;67903;52.108;9.358;2023-10-08T03:33:18;11.10;83.90
64987;DHT22;67903;52.108;9.358;2023-10-08T03:36:13;11.20;85.60
64987;DHT22;67903;52.108;9.358;2023-10-08T03:39:19;11.30;84.60
64987;DHT22;67903;52.108;9.358;2023-10-08T03:42:05;11.40;85.70
64987;DHT22;67903;52.108;9.358;2023-10-08T03:44:55;11.40;86.60
64987;DHT22;67903;52.108;9.358;2023-10-08T03:47:41;11.40;87.20
64987;DHT22;67903;52.108;9.358;2023-10-08T03:50:32;11.40;88.00
64987;DHT22;67903;52.108;9.358;2023-10-08T03:53:26;11.40;88.20
64987;DHT22;67903;52.108;9.358;2023-10-08T03:56:16;11.40;87.70
64987;DHT22;67903;52.108;9.358;2023-10-08T03:59:05;11.40;89.70
64987;DHT22;67903;52.108;9.358;2023-10-08T04:02:09;11.40;89.40
64987;DHT22;67903;52.108;9.358;2023-10-08T04:05:08;11.30;90.50
64987;DHT22;67903;52.108;9.358;2023-10-08T04:08:07;11.30;90.60
64987;DHT22;67903;52.108;9.358;2023-10-08T04:11:13;11.30;90.20
64987;DHT22;67903;52.108;9.358;2023-10-08T04:14:15;11.30;88.90
64987;DHT22;67903;52.108;9.358;2023-10-08T04:17:04;11.30;87.80
64987;DHT22;67903;52.108;9.358;2023-10-08T04:19:50;11.30;88.00
64987;DHT22;67903;52.108;9.358;2023-10-08T04:22:36;11.40;89.90
64987;DHT22;67903;52.108;9.358;2023-10-08T04:25:22;11.30;89.70
64987;DHT22;67903;52.108;9.358;2023-10-08T04:28:08;11.40;90.00
64987;DHT22;67903;52.108;9.358;2023-10-08T04:30:58;11.40;90.70
64987;DHT22;67903;52.108;9.358;2023-10-08T04:33:59;11.40;89.80
64987;DHT22;67903;52.108;9.358;2023-10-08T04:36:46;11.40;90.20
64987;DHT22;67903;52.108;9.358;2023-10-08T04:39:32;11.40;90.10
64987;DHT22;67903;52.108;9.358;2023-10-08T04:42:17;11.30;89.80
64987;DHT22;67903;52.108;9.358;2023-10-08T04:45:11;11.30;90.10
64987;DHT22;67903;52.108;9.358;2023-10-08T04:47:59;11.30;91.20
64987;DHT22;67903;52.108;9.358;2023-10-08T04:50:45;11.30;90.90
64987;DHT22;67903;52.108;9.358;2023-10-08T04:53:32;11.30;90.70
64987;DHT22;67903;52.108;9.358;2023-10-08T04:56:18;11.30;90.40
64987;DHT22;67903;52.108;9.358;2023-10-08T04:59:03;11.30;91.80
64987;DHT22;67903;52.108;9.358;2023-10-08T05:01:50;11.20;87.80
64987;DHT22;67903;52.108;9.358;2023-10-08T05:04:56;11.20;89.40
64987;DHT22;67903;52.108;9.358;2023-10-08T05:07:57;11.10;90.20
64987;DHT22;67903;52.108;9.358;2023-10-08T05:11:03;11.20;91.20
64987;DHT22;67903;52.108;9.358;2023-10-08T05:14:01;11.30;91.20
64987;DHT22;67903;52.108;9.358;2023-10-08T05:17:05;11.20;91.70
64987;DHT22;67903;52.108;9.358;2023-10-08T05:20:04;11.20;91.90
64987;DHT22;67903;52.108;9.358;2023-10-08T05:22:52;11.10;92.30
64987;DHT22;67903;52.108;9.358;2023-10-08T05:25:57;11.10;91.80
64987;DHT22;67903;52.108;9.358;2023-10-08T05:28:52;11.20;91.50
64987;DHT22;67903;52.108;9.358;2023-10-08T05:31:47;11.10;92.00
64987;DHT22;67903;52.108;9.358;2023-10-08T05:34:38;11.10;91.70
64987;DHT22;67903;52.108;9.358;2023-10-08T05:37:36;11.10;91.70
64987;DHT22;67903;52.108;9.358;2023-10-08T05:40:27;11.10;92.10
64987;DHT22;67903;52.108;9.358;2023-10-08T05:43:36;11.10;92.40
64987;DHT22;67903;52.108;9.358;2023-10-08T05:46:24;11.10;92.10
64987;DHT22;67903;52.108;9.358;2023-10-08T05:49:10;11.30;91.90
64987;DHT22;67903;52.108;9.358;2023-10-08T05:51:55;11.30;91.20
64987;DHT22;67903;52.108;9.358;2023-10-08T05:54:41;11.30;91.30
64987;DHT22;67903;52.108;9.358;2023-10-08T05:58:03;11.30;91.20
64987;DHT22;67903;52.108;9.358;2023-10-08T06:00:59;11.30;92.30
64987;DHT22;67903;52.108;9.358;2023-10-08T06:03:54;11.30;91.70
64987;DHT22;67903;52.108;9.358;2023-10-08T06:06:48;11.30;92.30
64987;DHT22;67903;52.108;9.358;2023-10-08T06:09:53;11.30;93.00
64987;DHT22;67903;52.108;9.358;2023-10-08T06:13:13;11.10;93.90
64987;DHT22;67903;52.108;9.358;2023-10-08T06:16:01;11.00;94.40
64987;DHT22;67903;52.108;9.358;2023-10-08T06:18:46;11.10;93.90
64987;DHT22;67903;52.108;9.358;2023-10-08T06:21:32;11.10;94.20
64987;DHT22;67903;52.108;9.358;2023-10-08T06:24:19;11.00;93.80
64987;DHT22;67903;52.108;9.358;2023-10-08T06:27:06;11.10;93.30
64987;DHT22;67903;52.108;9.358;2023-10-08T06:29:52;11.10;93.20
64987;DHT22;67903;52.108;9.358;2023-10-08T06:32:40;11.10;92.90
64987;DHT22;67903;52.108;9.358;2023-10-08T06:35:26;11.10;92.20
64987;DHT22;67903;52.108;9.358;2023-10-08T06:38:14;11.10;92.20
64987;DHT22;67903;52.108;9.358;2023-10-08T06:41:02;11.10;92.20
64987;DHT22;67903;52.108;9.358;2023-10-08T06:44:28;11.10;91.50
64987;DHT22;67903;52.108;9.358;2023-10-08T06:47:14;11.10;92.50
64987;DHT22;67903;52.108;9.358;2023-10-08T06:50:02;11.10;91.60
64987;DHT22;67903;52.108;9.358;2023-10-08T06:52:49;11.10;90.00
64987;DHT22;67903;52.108;9.358;2023-10-08T06:55:35;11.10;90.30
64987;DHT22;67903;52.108;9.358;2023-10-08T06:58:21;11.10;90.60
64987;DHT22;67903;52.108;9.358;2023-10-08T07:01:06;11.10;90.20
64987;DHT22;67903;52.108;9.358;2023-10-08T07:03:54;11.30;89.60
64987;DHT22;67903;52.108;9.358;2023-10-08T07:06:49;11.30;90.30
64987;DHT22;67903;52.108;9.358;2023-10-08T07:09:36;11.30;88.80
64987;DHT22;67903;52.108;9.358;2023-10-08T07:12:22;11.40;89.30
64987;DHT22;67903;52.108;9.358;2023-10-08T07:15:10;11.40;88.70
64987;DHT22;67903;52.108;9.358;2023-10-08T07:17:58;11.50;88.90
64987;DHT22;67903;52.108;9.358;2023-10-08T07:20:54;11.50;90.40
64987;DHT22;67903;52.108;9.358;2023-10-08T07:23:45;11.60;88.50
64987;DHT22;67903;52.108;9.358;2023-10-08T07:26:44;11.50;88.90
64987;DHT22;67903;52.108;9.358;2023-10-08T07:29:33;11.50;88.00
64987;DHT22;67903;52.108;9.358;2023-10-08T07:32:18;11.50;88.30
64987;DHT22;67903;52.108;9.358;2023-10-08T07:35:07;11.50;88.00
64987;DHT22;67903;52.108;9.358;2023-10-08T07:38:05;11.40;88.80
64987;DHT22;67903;52.108;9.358;2023-10-08T07:40:55;11.40;89.60
64987;DHT22;67903;52.108;9.358;2023-10-08T07:43:41;11.50;89.10
64987;DHT22;67903;52.108;9.358;2023-10-08T07:46:29;11.50;89.10
64987;DHT22;67903;52.108;9.358;2023-10-08T07:49:15;11.50;89.10
64987;DHT22;67903;52.108;9.358;2023-10-08T07:52:00;11.50;89.00
64987;DHT22;67903;52.108;9.358;2023-10-08T07:54:46;11.70;89.30
64987;DHT22;67903;52.108;9.358;2023-10-08T07:57:33;11.70;89.10
64987;DHT22;67903;52.108;9.358;2023-10-08T08:00:18;11.70;89.00
64987;DHT22;67903;52.108;9.358;2023-10-08T08:03:09;11.90;89.40
64987;DHT22;67903;52.108;9.358;2023-10-08T08:05:55;11.90;89.50
64987;DHT22;67903;52.108;9.358;2023-10-08T08:08:41;11.90;89.30
64987;DHT22;67903;52.108;9.358;2023-10-08T08:11:26;11.90;89.10
64987;DHT22;67903;52.108;9.358;2023-10-08T08:14:15;12.10;89.00
64987;DHT22;67903;52.108;9.358;2023-10-08T08:17:10;12.10;86.70
64987;DHT22;67903;52.108;9.358;2023-10-08T08:19:59;12.10;87.20
64987;DHT22;67903;52.108;9.358;2023-10-08T08:22:51;12.10;88.40
64987;DHT22;67903;52.108;9.358;2023-10-08T08:25:41;12.10;88.20
64987;DHT22;67903;52.108;9.358;2023-10-08T08:28:45;12.10;87.70
64987;DHT22;67903;52.108;9.358;2023-10-08T08:31:31;12.20;88.20
64987;DHT22;67903;52.108;9.358;2023-10-08T08:34:17;12.30;87.50
64987;DHT22;67903;52.108;9.358;2023-10-08T08:37:05;12.30;85.90
64987;DHT22;67903;52.108;9.358;2023-10-08T08:39:50;12.30;87.60
64987;DHT22;67903;52.108;9.358;2023-10-08T08:42:37;12.40;84.80
64987;DHT22;67903;52.108;9.358;2023-10-08T08:45:24;12.50;85.70
64987;DHT22;67903;52.108;9.358;2023-10-08T08:48:13;12.50;85.30
64987;DHT22;67903;52.108;9.358;2023-10-08T08:51:00;12.50;84.60
64987;DHT22;67903;52.108;9.358;2023-10-08T08:53:45;12.50;85.30
64987;DHT22;67903;52.108;9.358;2023-10-08T08:56:37;12.60;85.30
64987;DHT22;67903;52.108;9.358;2023-10-08T08:59:26;12.90;84.70
64987;DHT22;67903;52.108;9.358;2023-10-08T09:02:11;13.00;84.80
64987;DHT22;67903;52.108;9.358;2023-10-08T09:05:00;13.10;82.20
64987;DHT22;67903;52.108;9.358;2023-10-08T09:07:59;13.10;82.20
64987;DHT22;67903;52.108;9.358;2023-10-08T09:10:48;13.20;83.90
64987;DHT22;67903;52.108;9.358;2023-10-08T09:13:37;13.10;79.90
64987;DHT22;67903;52.108;9.358;2023-10-08T09:16:23;13.30;79.70
64987;DHT22;67903;52.108;9.358;2023-10-08T09:19:09;13.40;80.90
64987;DHT22;67903;52.108;9.358;2023-10-08T09:22:08;13.50;80.70
64987;DHT22;67903;52.108;9.358;2023-10-08T09:24:53;13.60;78.20
64987;DHT22;67903;52.108;9.358;2023-10-08T09:27:39;13.70;78.40
64987;DHT22;67903;52.108;9.358;2023-10-08T09:30:32;13.90;77.90
64987;DHT22;67903;52.108;9.358;2023-10-08T09:33:22;13.70;74.40
64987;DHT22;67903;52.108;9.358;2023-10-08T09:36:08;13.50;74.80
64987;DHT22;67903;52.108;9.358;2023-10-08T09:39:00;13.30;74.70
64987;DHT22;67903;52.108;9.358;2023-10-08T09:41:48;13.40;75.20
64987;DHT22;67903;52.108;9.358;2023-10-08T09:44:33;13.30;73.10
64987;DHT22;67903;52.108;9.358;2023-10-08T09:47:25;13.40;74.90
64987;DHT22;67903;52.108;9.358;2023-10-08T09:50:12;13.60;74.20
64987;DHT22;67903;52.108;9.358;2023-10-08T09:53:11;13.50;72.60
64987;DHT22;67903;52.108;9.358;2023-10-08T09:56:15;13.40;71.60
64987;DHT22;67903;52.108;9.358;2023-10-08T09:59:03;13.30;72.60
64987;DHT22;67903;52.108;9.358;2023-10-08T10:01:48;13.50;72.30
64987;DHT22;67903;52.108;9.358;2023-10-08T10:04:34;13.70;73.40
64987;DHT22;67903;52.108;9.358;2023-10-08T10:07:20;14.00;73.60
64987;DHT22;67903;52.108;9.358;2023-10-08T10:10:25;14.00;72.10
64987;DHT22;67903;52.108;9.358;2023-10-08T10:13:11;14.10;71.40
64987;DHT22;67903;52.108;9.358;2023-10-08T10:15:58;14.00;73.20
64987;DHT22;67903;52.108;9.358;2023-10-08T10:18:44;14.10;72.60
64987;DHT22;67903;52.108;9.358;2023-10-08T10:21:33;14.20;72.70
64987;DHT22;67903;52.108;9.358;2023-10-08T10:24:28;14.20;72.50
64987;DHT22;67903;52.108;9.358;2023-10-08T10:27:17;14.20;73.60
64987;DHT22;67903;52.108;9.358;2023-10-08T10:30:04;14.10;73.80
64987;DHT22;67903;52.108;9.358;2023-10-08T10:33:00;14.20;73.00
64987;DHT22;67903;52.108;9.358;2023-10-08T10:35:53;14.10;72.10
64987;DHT22;67903;52.108;9.358;2023-10-08T10:38:39;14.20;73.00
64987;DHT22;67903;52.108;9.358;2023-10-08T10:41:27;14.40;72.20
64987;DHT22;67903;52.108;9.358;2023-10-08T10:44:14;14.50;70.50
64987;DHT22;67903;52.108;9.358;2023-10-08T10:47:00;14.60;72.00
64987;DHT22;67903;52.108;9.358;2023-10-08T10:50:01;14.80;69.00
64987;DHT22;67903;52.108;9.358;2023-10-08T10:52:52;14.90;69.60
64987;DHT22;67903;52.108;9.358;2023-10-08T10:55:40;15.00;69.40
64987;DHT22;67903;52.108;9.358;2023-10-08T10:58:33;15.00;68.20
64987;DHT22;67903;52.108;9.358;2023-10-08T11:01:28;14.90;68.20
64987;DHT22;67903;52.108;9.358;2023-10-08T11:04:30;14.90;66.10
64987;DHT22;67903;52.108;9.358;2023-10-08T11:07:20;15.00;66.90
64987;DHT22;67903;52.108;9.358;2023-10-08T11:10:07;15.10;66.30
64987;DHT22;67903;52.108;9.358;2023-10-08T11:12:56;15.30;66.40
64987;DHT22;67903;52.108;9.358;2023-10-08T11:15:46;15.60;68.40
64987;DHT22;67903;52.108;9.358;2023-10-08T11:18:41;15.80;66.50
64987;DHT22;67903;52.108;9.358;2023-10-08T11:21:26;15.60;65.00
64987;DHT22;67903;52.108;9.358;2023-10-08T11:24:30;15.40;65.20
64987;DHT22;67903;52.108;9.358;2023-10-08T11:27:18;15.30;66.50
64987;DHT22;67903;52.108;9.358;2023-10-08T11:30:22;15.10;65.10
64987;DHT22;67903;52.108;9.358;2023-10-08T11:33:08;14.80;65.00
64987;DHT22;67903;52.108;9.358;2023-10-08T11:36:01;15.00;65.00
64987;DHT22;67903;52.108;9.358;2023-10-08T11:38:47;15.10;65.80
64987;DHT22;67903;52.108;9.358;2023-10-08T11:41:34;15.30;66.20
64987;DHT22;67903;52.108;9.358;2023-10-08T11:44:35;15.20;65.40
64987;DHT22;67903;52.108;9.358;2023-10-08T11:47:22;15.20;65.70
64987;DHT22;67903;52.108;9.358;2023-10-08T11:50:08;15.20;64.80
64987;DHT22;67903;52.108;9.358;2023-10-08T11:53:01;15.00;64.20
64987;DHT22;67903;52.108;9.358;2023-10-08T11:55:51;15.00;64.80
64987;DHT22;67903;52.108;9.358;2023-10-08T11:58:42;15.20;65.40
64987;DHT22;67903;52.108;9.358;2023-10-08T12:01:30;15.40;66.10
64987;DHT22;67903;52.108;9.358;2023-10-08T12:04:18;15.40;64.20
64987;DHT22;67903;52.108;9.358;2023-10-08T12:07:04;15.10;64.00
64987;DHT22;67903;52.108;9.358;2023-10-08T12:09:53;15.20;65.30
64987;DHT22;67903;52.108;9.358;2023-10-08T12:12:39;15.20;64.10
64987;DHT22;67903;52.108;9.358;2023-10-08T12:15:26;15.40;63.80
64987;DHT22;67903;52.108;9.358;2023-10-08T12:18:23;15.60;63.20
64987;DHT22;67903;52.108;9.358;2023-10-08T12:21:15;15.80;61.80
64987;DHT22;67903;52.108;9.358;2023-10-08T12:24:03;15.60;61.80
64987;DHT22;67903;52.108;9.358;2023-10-08T12:26:50;15.60;63.20
64987;DHT22;67903;52.108;9.358;2023-10-08T12:29:37;15.50;62.20
64987;DHT22;67903;52.108;9.358;2023-10-08T12:32:23;15.40;62.60
64987;DHT22;67903;52.108;9.358;2023-10-08T12:35:11;15.30;62.40
64987;DHT22;67903;52.108;9.358;2023-10-08T12:38:00;15.40;61.50
64987;DHT22;67903;52.108;9.358;2023-10-08T12:40:45;15.60;61.90
64987;DHT22;67903;52.108;9.358;2023-10-08T12:43:39;15.60;62.50
64987;DHT22;67903;52.108;9.358;2023-10-08T12:46:24;15.60;63.60
64987;DHT22;67903;52.108;9.358;2023-10-08T12:49:10;15.50;62.00
64987;DHT22;67903;52.108;9.358;2023-10-08T12:51:56;15.60;62.20
64987;DHT22;67903;52.108;9.358;2023-10-08T12:54:44;15.50;61.10
64987;DHT22;67903;52.108;9.358;2023-10-08T12:57:31;15.50;62.00
64987;DHT22;67903;52.108;9.358;2023-10-08T13:00:19;15.40;63.20
64987;DHT22;67903;52.108;9.358;2023-10-08T13:03:09;15.20;63.00
64987;DHT22;67903;52.108;9.358;2023-10-08T13:06:00;15.20;62.50
64987;DHT22;67903;52.108;9.358;2023-10-08T13:08:50;15.40;62.60
64987;DHT22;67903;52.108;9.358;2023-10-08T13:11:38;15.60;62.50
64987;DHT22;67903;52.108;9.358;2023-10-08T13:14:25;15.80;61.80
64987;DHT22;67903;52.108;9.358;2023-10-08T13:17:11;16.00;62.20
64987;DHT22;67903;52.108;9.358;2023-10-08T13:19:56;16.00;60.00
64987;DHT22;67903;52.108;9.358;2023-10-08T13:22:42;15.80;61.30
64987;DHT22;67903;52.108;9.358;2023-10-08T13:25:28;15.80;60.50
64987;DHT22;67903;52.108;9.358;2023-10-08T13:28:18;15.70;61.90
64987;DHT22;67903;52.108;9.358;2023-10-08T13:31:06;15.80;60.30
64987;DHT22;67903;52.108;9.358;2023-10-08T13:33:57;15.70;60.30
64987;DHT22;67903;52.108;9.358;2023-10-08T13:36:45;15.70;58.50
64987;DHT22;67903;52.108;9.358;2023-10-08T13:39:33;15.40;58.90
64987;DHT22;67903;52.108;9.358;2023-10-08T13:42:20;15.30;59.80
64987;DHT22;67903;52.108;9.358;2023-10-08T13:45:06;15.40;59.80
64987;DHT22;67903;52.108;9.358;2023-10-08T13:47:54;15.40;59.10
64987;DHT22;67903;52.108;9.358;2023-10-08T13:50:42;15.40;59.90
64987;DHT22;67903;52.108;9.358;2023-10-08T13:53:31;15.50;60.00
64987;DHT22;67903;52.108;9.358;2023-10-08T13:56:16;15.40;59.90
64987;DHT22;67903;52.108;9.358;2023-10-08T13:59:04;15.40;61.20
64987;DHT22;67903;52.108;9.358;2023-10-08T14:01:59;15.50;60.40
64987;DHT22;67903;52.108;9.358;2023-10-08T14:04:47;15.50;60.70
64987;DHT22;67903;52.108;9.358;2023-10-08T14:07:36;15.50;60.50
64987;DHT22;67903;52.108;9.358;2023-10-08T14:10:23;15.50;61.60
64987;DHT22;67903;52.108;9.358;2023-10-08T14:13:15;15.40;60.40
64987;DHT22;67903;52.108;9.358;2023-10-08T14:16:04;15.30;62.10
64987;DHT22;67903;52.108;9.358;2023-10-08T14:18:55;15.30;62.50
64987;DHT22;67903;52.108;9.358;2023-10-08T14:21:41;15.30;61.70
64987;DHT22;67903;52.108;9.358;2023-10-08T14:24:35;15.20;61.80
64987;DHT22;67903;52.108;9.358;2023-10-08T14:27:27;14.90;61.90
64987;DHT22;67903;52.108;9.358;2023-10-08T14:30:24;14.90;64.30
64987;DHT22;67903;52.108;9.358;2023-10-08T14:33:10;14.80;63.90
64987;DHT22;67903;52.108;9.358;2023-10-08T14:36:09;14.80;64.50
64987;DHT22;67903;52.108;9.358;2023-10-08T14:39:13;14.90;64.40
64987;DHT22;67903;52.108;9.358;2023-10-08T14:42:18;14.90;63.40
64987;DHT22;67903;52.108;9.358;2023-10-08T14:45:23;14.80;62.80
64987;DHT22;67903;52.108;9.358;2023-10-08T14:48:12;14.80;62.10
64987;DHT22;67903;52.108;9.358;2023-10-08T14:50:59;14.70;61.90
64987;DHT22;67903;52.108;9.358;2023-10-08T14:53:45;14.70;63.30
64987;DHT22;67903;52.108;9.358;2023-10-08T14:56:31;14.70;64.30
64987;DHT22;67903;52.108;9.358;2023-10-08T14:59:18;14.80;65.30
64987;DHT22;67903;52.108;9.358;2023-10-08T15:02:06;14.80;63.20
64987;DHT22;67903;52.108;9.358;2023-10-08T15:04:52;14.80;63.00
64987;DHT22;67903;52.108;9.358;2023-10-08T15:07:38;14.70;62.60
64987;DHT22;67903;52.108;9.358;2023-10-08T15:10:24;14.80;62.80
64987;DHT22;67903;52.108;9.358;2023-10-08T15:13:11;14.80;62.60
64987;DHT22;67903;52.108;9.358;2023-10-08T15:15:56;14.90;62.70
64987;DHT22;67903;52.108;9.358;2023-10-08T15:18:45;14.90;64.50
64987;DHT22;67903;52.108;9.358;2023-10-08T15:21:31;15.00;64.70
64987;DHT22;67903;52.108;9.358;2023-10-08T15:24:21;15.00;63.60
64987;DHT22;67903;52.108;9.358;2023-10-08T15:27:07;15.00;63.10
64987;DHT22;67903;52.108;9.358;2023-10-08T15:29:56;15.00;63.50
64987;DHT22;67903;52.108;9.358;2023-10-08T15:32:43;15.00;63.80
64987;DHT22;67903;52.108;9.358;2023-10-08T15:35:32;15.00;65.30
64987;DHT22;67903;52.108;9.358;2023-10-08T15:38:18;15.00;64.60
64987;DHT22;67903;52.108;9.358;2023-10-08T15:41:04;15.00;64.90
64987;DHT22;67903;52.108;9.358;2023-10-08T15:43:50;15.00;64.70
64987;DHT22;67903;52.108;9.358;2023-10-08T15:46:36;14.90;65.50
64987;DHT22;67903;52.108;9.358;2023-10-08T15:49:22;14.80;66.20
64987;DHT22;67903;52.108;9.358;2023-10-08T15:52:08;14.70;66.00
64987;DHT22;67903;52.108;9.358;2023-10-08T15:54:53;14.70;66.20
64987;DHT22;67903;52.108;9.358;2023-10-08T15:57:39;14.60;66.50
64987;DHT22;67903;52.108;9.358;2023-10-08T16:00:26;14.60;65.70
64987;DHT22;67903;52.108;9.358;2023-10-08T16:03:12;14.60;66.50
64987;DHT22;67903;52.108;9.358;2023-10-08T16:05:58;14.50;67.50
64987;DHT22;67903;52.108;9.358;2023-10-08T16:08:44;14.40;67.80
64987;DHT22;67903;52.108;9.358;2023-10-08T16:11:30;14.40;68.30
64987;DHT22;67903;52.108;9.358;2023-10-08T16:14:16;14.40;68.00
64987;DHT22;67903;52.108;9.358;2023-10-08T16:17:02;14.40;68.20
64987;DHT22;67903;52.108;9.358;2023-10-08T16:19:53;14.40;68.70
64987;DHT22;67903;52.108;9.358;2023-10-08T16:22:39;14.40;69.60
64987;DHT22;67903;52.108;9.358;2023-10-08T16:25:24;14.30;70.00
64987;DHT22;67903;52.108;9.358;2023-10-08T16:28:10;14.30;70.50
64987;DHT22;67903;52.108;9.358;2023-10-08T16:30:57;14.20;71.00
64987;DHT22;67903;52.108;9.358;2023-10-08T16:33:44;14.20;71.00
64987;DHT22;67903;52.108;9.358;2023-10-08T16:36:29;14.20;71.90
64987;DHT22;67903;52.108;9.358;2023-10-08T16:39:15;14.20;71.60
64987;DHT22;67903;52.108;9.358;2023-10-08T16:42:04;14.10;71.50
64987;DHT22;67903;52.108;9.358;2023-10-08T16:44:49;14.10;72.10
64987;DHT22;67903;52.108;9.358;2023-10-08T16:47:36;14.10;73.00
64987;DHT22;67903;52.108;9.358;2023-10-08T16:50:22;14.00;72.70
64987;DHT22;67903;52.108;9.358;2023-10-08T16:53:07;14.00;72.80
64987;DHT22;67903;52.108;9.358;2023-10-08T16:55:53;13.90;73.30
64987;DHT22;67903;52.108;9.358;2023-10-08T16:58:38;13.90;73.80
64987;DHT22;67903;52.108;9.358;2023-10-08T17:01:24;13.90;74.60
64987;DHT22;67903;52.108;9.358;2023-10-08T17:04:10;13.80;73.90
64987;DHT22;67903;52.108;9.358;2023-10-08T17:06:58;13.80;73.90
64987;DHT22;67903;52.108;9.358;2023-10-08T17:09:44;13.90;73.50
64987;DHT22;67903;52.108;9.358;2023-10-08T17:12:30;13.90;74.10
64987;DHT22;67903;52.108;9.358;2023-10-08T17:15:15;13.80;74.30
64987;DHT22;67903;52.108;9.358;2023-10-08T17:18:01;13.70;74.90
64987;DHT22;67903;52.108;9.358;2023-10-08T17:20:47;13.70;75.00
64987;DHT22;67903;52.108;9.358;2023-10-08T17:23:33;13.70;75.30
64987;DHT22;67903;52.108;9.358;2023-10-08T17:26:18;13.70;75.00
64987;DHT22;67903;52.108;9.358;2023-10-08T17:29:04;13.70;76.00
64987;DHT22;67903;52.108;9.358;2023-10-08T17:31:53;13.70;76.50
64987;DHT22;67903;52.108;9.358;2023-10-08T17:34:39;13.70;76.50
64987;DHT22;67903;52.108;9.358;2023-10-08T17:37:25;13.70;76.70
64987;DHT22;67903;52.108;9.358;2023-10-08T17:40:11;13.60;77.10
64987;DHT22;67903;52.108;9.358;2023-10-08T17:42:57;13.60;77.40
64987;DHT22;67903;52.108;9.358;2023-10-08T17:45:42;13.60;77.30
64987;DHT22;67903;52.108;9.358;2023-10-08T17:48:31;13.60;77.20
64987;DHT22;67903;52.108;9.358;2023-10-08T17:51:22;13.50;77.00